sensor_id;sensor_type;location;lat;lon;timestamp;temperature;humidity
66086;DHT22;52868;49.758;9.586;2023-03-01T00:02:06;2.90;61.20
66086;DHT22;52868;49.758;9.586;2023-03-01T00:04:32;2.90;61.40
66086;DHT22;52868;49.758;9.586;2023-03-01T00:06:58;2.80;61.50
66086;DHT22;52868;49.758;9.586;2023-03-01T00:09:23;2.90;61.60
66086;DHT22;52868;49.758;9.586;2023-03-01T00:11:49;2.80;61.60
66086;DHT22;52868;49.758;9.586;2023-03-01T00:14:16;2.70;61.90
66086;DHT22;52868;49.758;9.586;2023-03-01T00:16:43;2.70;61.80
66086;DHT22;52868;49.758;9.586;2023-03-01T00:19:17;2.80;61.80
66086;DHT22;52868;49.758;9.586;2023-03-01T00:21:43;2.80;61.80
66086;DHT22;52868;49.758;9.586;2023-03-01T00:24:11;2.80;61.70
66086;DHT22;52868;49.758;9.586;2023-03-01T00:26:37;2.80;61.70
66086;DHT22;52868;49.758;9.586;2023-03-01T00:29:03;2.70;61.90
66086;DHT22;52868;49.758;9.586;2023-03-01T00:31:31;2.70;61.90
66086;DHT22;52868;49.758;9.586;2023-03-01T00:34:02;2.80;61.80
66086;DHT22;52868;49.758;9.586;2023-03-01T00:36:33;2.80;61.70
66086;DHT22;52868;49.758;9.586;2023-03-01T00:39:00;2.80;61.60
66086;DHT22;52868;49.758;9.586;2023-03-01T00:41:26;2.90;61.50
66086;DHT22;52868;49.758;9.586;2023-03-01T00:43:52;2.90;61.50
66086;DHT22;52868;49.758;9.586;2023-03-01T00:46:21;2.80;61.30
66086;DHT22;52868;49.758;9.586;2023-03-01T00:48:47;2.80;61.40
66086;DHT22;52868;49.758;9.586;2023-03-01T00:51:17;2.90;61.30
66086;DHT22;52868;49.758;9.586;2023-03-01T00:53:43;2.90;61.10
66086;DHT22;52868;49.758;9.586;2023-03-01T00:56:11;2.80;61.20
66086;DHT22;52868;49.758;9.586;2023-03-01T00:58:36;2.70;61.20
66086;DHT22;52868;49.758;9.586;2023-03-01T01:01:10;2.60;61.60
66086;DHT22;52868;49.758;9.586;2023-03-01T01:03:46;2.50;61.90
66086;DHT22;52868;49.758;9.586;2023-03-01T01:06:20;2.40;62.20
66086;DHT22;52868;49.758;9.586;2023-03-01T01:08:46;2.30;62.30
66086;DHT22;52868;49.758;9.586;2023-03-01T01:11:13;2.30;62.30
66086;DHT22;52868;49.758;9.586;2023-03-01T01:13:39;2.30;62.50
66086;DHT22;52868;49.758;9.586;2023-03-01T01:16:05;2.30;62.50
66086;DHT22;52868;49.758;9.586;2023-03-01T01:18:31;2.20;62.50
66086;DHT22;52868;49.758;9.586;2023-03-01T01:20:57;2.20;62.70
66086;DHT22;52868;49.758;9.586;2023-03-01T01:23:22;2.20;62.80
66086;DHT22;52868;49.758;9.586;2023-03-01T01:25:48;2.20;62.70
66086;DHT22;52868;49.758;9.586;2023-03-01T01:28:14;2.20;62.70
66086;DHT22;52868;49.758;9.586;2023-03-01T01:30:39;2.20;62.70
66086;DHT22;52868;49.758;9.586;2023-03-01T01:33:05;2.20;62.70
66086;DHT22;52868;49.758;9.586;2023-03-01T01:35:30;2.20;62.80
66086;DHT22;52868;49.758;9.586;2023-03-01T01:37:56;2.20;62.80
66086;DHT22;52868;49.758;9.586;2023-03-01T01:40:22;2.20;62.80
66086;DHT22;52868;49.758;9.586;2023-03-01T01:42:47;2.20;62.80
66086;DHT22;52868;49.758;9.586;2023-03-01T01:45:34;2.10;62.90
66086;DHT22;52868;49.758;9.586;2023-03-01T01:48:10;2.20;62.90
66086;DHT22;52868;49.758;9.586;2023-03-01T01:50:39;2.20;63.00
66086;DHT22;52868;49.758;9.586;2023-03-01T01:53:14;2.10;62.90
66086;DHT22;52868;49.758;9.586;2023-03-01T01:55:45;2.10;63.10
66086;DHT22;52868;49.758;9.586;2023-03-01T01:58:16;2.10;63.20
66086;DHT22;52868;49.758;9.586;2023-03-01T02:00:43;2.10;63.00
66086;DHT22;52868;49.758;9.586;2023-03-01T02:03:29;2.20;62.70
66086;DHT22;52868;49.758;9.586;2023-03-01T02:06:41;2.20;62.90
66086;DHT22;52868;49.758;9.586;2023-03-01T02:09:03;2.20;62.70
66086;DHT22;52868;49.758;9.586;2023-03-01T02:11:31;2.30;62.60
66086;DHT22;52868;49.758;9.586;2023-03-01T02:13:57;2.30;62.50
66086;DHT22;52868;49.758;9.586;2023-03-01T02:16:23;2.20;62.40
66086;DHT22;52868;49.758;9.586;2023-03-01T02:18:50;2.20;62.30
66086;DHT22;52868;49.758;9.586;2023-03-01T02:21:26;2.20;62.10
66086;DHT22;52868;49.758;9.586;2023-03-01T02:23:56;2.20;62.30
66086;DHT22;52868;49.758;9.586;2023-03-01T02:29:22;2.10;62.50
66086;DHT22;52868;49.758;9.586;2023-03-01T02:31:49;2.10;62.90
66086;DHT22;52868;49.758;9.586;2023-03-01T02:34:22;2.20;62.60
66086;DHT22;52868;49.758;9.586;2023-03-01T02:36:55;2.20;62.60
66086;DHT22;52868;49.758;9.586;2023-03-01T02:39:35;2.20;62.60
66086;DHT22;52868;49.758;9.586;2023-03-01T02:42:03;2.10;62.70
66086;DHT22;52868;49.758;9.586;2023-03-01T02:44:29;2.00;62.90
66086;DHT22;52868;49.758;9.586;2023-03-01T02:46:56;1.90;63.10
66086;DHT22;52868;49.758;9.586;2023-03-01T02:49:28;1.90;63.20
66086;DHT22;52868;49.758;9.586;2023-03-01T02:52:21;2.00;63.10
66086;DHT22;52868;49.758;9.586;2023-03-01T02:54:58;2.00;63.00
66086;DHT22;52868;49.758;9.586;2023-03-01T02:57:27;2.10;62.70
66086;DHT22;52868;49.758;9.586;2023-03-01T02:59:55;2.00;62.80
66086;DHT22;52868;49.758;9.586;2023-03-01T03:02:27;1.80;63.10
66086;DHT22;52868;49.758;9.586;2023-03-01T03:05:13;1.90;63.10
66086;DHT22;52868;49.758;9.586;2023-03-01T03:07:41;1.90;63.10
66086;DHT22;52868;49.758;9.586;2023-03-01T03:10:12;1.90;62.80
66086;DHT22;52868;49.758;9.586;2023-03-01T03:12:39;1.90;62.80
66086;DHT22;52868;49.758;9.586;2023-03-01T03:15:06;1.90;62.70
66086;DHT22;52868;49.758;9.586;2023-03-01T03:17:36;2.00;62.70
66086;DHT22;52868;49.758;9.586;2023-03-01T03:20:06;2.00;62.60
66086;DHT22;52868;49.758;9.586;2023-03-01T03:22:37;1.90;62.80
66086;DHT22;52868;49.758;9.586;2023-03-01T03:25:02;1.80;62.90
66086;DHT22;52868;49.758;9.586;2023-03-01T03:27:28;1.80;63.20
66086;DHT22;52868;49.758;9.586;2023-03-01T03:29:54;1.80;63.20
66086;DHT22;52868;49.758;9.586;2023-03-01T03:32:19;1.70;63.20
66086;DHT22;52868;49.758;9.586;2023-03-01T03:34:45;1.70;63.40
66086;DHT22;52868;49.758;9.586;2023-03-01T03:37:10;1.70;63.60
66086;DHT22;52868;49.758;9.586;2023-03-01T03:39:56;1.70;63.60
66086;DHT22;52868;49.758;9.586;2023-03-01T03:42:21;1.80;63.50
66086;DHT22;52868;49.758;9.586;2023-03-01T03:44:48;1.70;63.30
66086;DHT22;52868;49.758;9.586;2023-03-01T03:47:13;1.70;63.30
66086;DHT22;52868;49.758;9.586;2023-03-01T03:49:39;1.70;63.60
66086;DHT22;52868;49.758;9.586;2023-03-01T03:52:04;1.70;63.60
66086;DHT22;52868;49.758;9.586;2023-03-01T03:54:30;1.70;63.50
66086;DHT22;52868;49.758;9.586;2023-03-01T03:56:55;1.70;63.50
66086;DHT22;52868;49.758;9.586;2023-03-01T03:59:21;1.80;63.50
66086;DHT22;52868;49.758;9.586;2023-03-01T04:01:47;1.80;63.40
66086;DHT22;52868;49.758;9.586;2023-03-01T04:04:12;1.90;63.30
66086;DHT22;52868;49.758;9.586;2023-03-01T04:06:38;1.90;63.20
66086;DHT22;52868;49.758;9.586;2023-03-01T04:09:04;1.90;63.30
66086;DHT22;52868;49.758;9.586;2023-03-01T04:11:30;1.90;63.30
66086;DHT22;52868;49.758;9.586;2023-03-01T04:13:57;1.90;63.30
66086;DHT22;52868;49.758;9.586;2023-03-01T04:16:24;1.90;63.40
66086;DHT22;52868;49.758;9.586;2023-03-01T04:18:51;2.00;63.30
66086;DHT22;52868;49.758;9.586;2023-03-01T04:21:17;1.90;63.20
66086;DHT22;52868;49.758;9.586;2023-03-01T04:23:45;1.90;63.20
66086;DHT22;52868;49.758;9.586;2023-03-01T04:26:11;1.90;63.10
66086;DHT22;52868;49.758;9.586;2023-03-01T04:28:39;1.90;63.20
66086;DHT22;52868;49.758;9.586;2023-03-01T04:31:08;1.90;63.30
66086;DHT22;52868;49.758;9.586;2023-03-01T04:33:41;2.00;63.10
66086;DHT22;52868;49.758;9.586;2023-03-01T04:36:08;2.00;62.90
66086;DHT22;52868;49.758;9.586;2023-03-01T04:38:35;2.00;62.90
66086;DHT22;52868;49.758;9.586;2023-03-01T04:41:04;1.90;62.90
66086;DHT22;52868;49.758;9.586;2023-03-01T04:43:29;1.90;63.20
66086;DHT22;52868;49.758;9.586;2023-03-01T04:46:03;2.00;62.90
66086;DHT22;52868;49.758;9.586;2023-03-01T04:48:30;2.00;62.90
66086;DHT22;52868;49.758;9.586;2023-03-01T04:50:57;1.90;63.00
66086;DHT22;52868;49.758;9.586;2023-03-01T04:53:23;1.90;63.10
66086;DHT22;52868;49.758;9.586;2023-03-01T04:55:50;1.80;63.30
66086;DHT22;52868;49.758;9.586;2023-03-01T04:58:16;1.90;63.20
66086;DHT22;52868;49.758;9.586;2023-03-01T05:00:42;2.00;63.00
66086;DHT22;52868;49.758;9.586;2023-03-01T05:03:08;2.00;63.10
66086;DHT22;52868;49.758;9.586;2023-03-01T05:05:39;2.00;62.90
66086;DHT22;52868;49.758;9.586;2023-03-01T05:08:07;1.90;63.20
66086;DHT22;52868;49.758;9.586;2023-03-01T05:10:35;1.90;63.30
66086;DHT22;52868;49.758;9.586;2023-03-01T05:13:01;1.80;63.40
66086;DHT22;52868;49.758;9.586;2023-03-01T05:15:29;1.90;63.40
66086;DHT22;52868;49.758;9.586;2023-03-01T05:17:56;2.00;63.30
66086;DHT22;52868;49.758;9.586;2023-03-01T05:20:24;1.80;63.30
66086;DHT22;52868;49.758;9.586;2023-03-01T05:22:51;1.80;63.40
66086;DHT22;52868;49.758;9.586;2023-03-01T05:25:17;1.70;63.60
66086;DHT22;52868;49.758;9.586;2023-03-01T05:27:42;1.80;63.40
66086;DHT22;52868;49.758;9.586;2023-03-01T05:30:09;1.90;63.20
66086;DHT22;52868;49.758;9.586;2023-03-01T05:32:46;2.00;62.90
66086;DHT22;52868;49.758;9.586;2023-03-01T05:35:14;2.00;62.90
66086;DHT22;52868;49.758;9.586;2023-03-01T05:37:43;2.00;62.90
66086;DHT22;52868;49.758;9.586;2023-03-01T05:40:12;2.00;62.90
66086;DHT22;52868;49.758;9.586;2023-03-01T05:43:02;2.00;62.90
66086;DHT22;52868;49.758;9.586;2023-03-01T05:45:30;2.00;62.90
66086;DHT22;52868;49.758;9.586;2023-03-01T05:47:58;1.90;63.10
66086;DHT22;52868;49.758;9.586;2023-03-01T05:50:26;1.90;63.20
66086;DHT22;52868;49.758;9.586;2023-03-01T05:53:14;1.90;63.30
66086;DHT22;52868;49.758;9.586;2023-03-01T05:55:40;1.90;63.20
66086;DHT22;52868;49.758;9.586;2023-03-01T05:58:12;1.80;63.20
66086;DHT22;52868;49.758;9.586;2023-03-01T06:00:43;1.80;63.20
66086;DHT22;52868;49.758;9.586;2023-03-01T06:03:10;1.80;63.20
66086;DHT22;52868;49.758;9.586;2023-03-01T06:05:36;1.80;63.40
66086;DHT22;52868;49.758;9.586;2023-03-01T06:08:03;1.80;63.30
66086;DHT22;52868;49.758;9.586;2023-03-01T06:10:29;1.80;63.00
66086;DHT22;52868;49.758;9.586;2023-03-01T06:12:58;1.90;63.00
66086;DHT22;52868;49.758;9.586;2023-03-01T06:15:24;2.00;62.90
66086;DHT22;52868;49.758;9.586;2023-03-01T06:17:50;1.90;62.80
66086;DHT22;52868;49.758;9.586;2023-03-01T06:20:21;2.00;62.70
66086;DHT22;52868;49.758;9.586;2023-03-01T06:22:47;2.00;62.80
66086;DHT22;52868;49.758;9.586;2023-03-01T06:25:15;2.00;62.70
66086;DHT22;52868;49.758;9.586;2023-03-01T06:27:41;2.00;62.80
66086;DHT22;52868;49.758;9.586;2023-03-01T06:30:09;2.10;62.70
66086;DHT22;52868;49.758;9.586;2023-03-01T06:32:36;2.10;62.70
66086;DHT22;52868;49.758;9.586;2023-03-01T06:35:03;2.20;62.40
66086;DHT22;52868;49.758;9.586;2023-03-01T06:37:29;2.10;62.50
66086;DHT22;52868;49.758;9.586;2023-03-01T06:39:54;2.10;62.60
66086;DHT22;52868;49.758;9.586;2023-03-01T06:42:20;2.10;62.70
66086;DHT22;52868;49.758;9.586;2023-03-01T06:44:45;2.10;62.60
66086;DHT22;52868;49.758;9.586;2023-03-01T06:47:11;2.10;62.70
66086;DHT22;52868;49.758;9.586;2023-03-01T06:49:37;2.10;62.80
66086;DHT22;52868;49.758;9.586;2023-03-01T06:52:02;2.10;62.80
66086;DHT22;52868;49.758;9.586;2023-03-01T06:54:28;2.00;62.90
66086;DHT22;52868;49.758;9.586;2023-03-01T06:56:54;2.10;62.80
66086;DHT22;52868;49.758;9.586;2023-03-01T06:59:20;2.10;62.90
66086;DHT22;52868;49.758;9.586;2023-03-01T07:01:46;2.10;62.80
66086;DHT22;52868;49.758;9.586;2023-03-01T07:04:12;2.00;63.00
66086;DHT22;52868;49.758;9.586;2023-03-01T07:06:38;2.00;63.10
66086;DHT22;52868;49.758;9.586;2023-03-01T07:09:04;2.00;63.10
66086;DHT22;52868;49.758;9.586;2023-03-01T07:11:30;2.10;63.10
66086;DHT22;52868;49.758;9.586;2023-03-01T07:13:56;2.10;63.00
66086;DHT22;52868;49.758;9.586;2023-03-01T07:16:22;2.10;63.00
66086;DHT22;52868;49.758;9.586;2023-03-01T07:18:47;2.10;62.90
66086;DHT22;52868;49.758;9.586;2023-03-01T07:21:14;2.10;63.00
66086;DHT22;52868;49.758;9.586;2023-03-01T07:23:40;2.20;63.10
66086;DHT22;52868;49.758;9.586;2023-03-01T07:26:06;2.10;63.20
66086;DHT22;52868;49.758;9.586;2023-03-01T07:28:32;2.10;63.20
66086;DHT22;52868;49.758;9.586;2023-03-01T07:31:04;2.10;63.30
66086;DHT22;52868;49.758;9.586;2023-03-01T07:33:30;2.20;63.30
66086;DHT22;52868;49.758;9.586;2023-03-01T07:36:00;2.20;63.30
66086;DHT22;52868;49.758;9.586;2023-03-01T07:38:26;2.20;63.30
66086;DHT22;52868;49.758;9.586;2023-03-01T07:40:52;2.20;63.50
66086;DHT22;52868;49.758;9.586;2023-03-01T07:43:18;2.30;63.60
66086;DHT22;52868;49.758;9.586;2023-03-01T07:45:44;2.40;63.20
66086;DHT22;52868;49.758;9.586;2023-03-01T07:48:10;2.40;63.20
66086;DHT22;52868;49.758;9.586;2023-03-01T07:50:35;2.40;63.10
66086;DHT22;52868;49.758;9.586;2023-03-01T07:53:01;2.50;63.20
66086;DHT22;52868;49.758;9.586;2023-03-01T07:55:28;2.50;63.30
66086;DHT22;52868;49.758;9.586;2023-03-01T07:57:53;2.60;62.90
66086;DHT22;52868;49.758;9.586;2023-03-01T08:00:22;2.70;62.80
66086;DHT22;52868;49.758;9.586;2023-03-01T08:02:47;2.70;63.00
66086;DHT22;52868;49.758;9.586;2023-03-01T08:05:13;2.70;62.80
66086;DHT22;52868;49.758;9.586;2023-03-01T08:07:39;2.70;62.80
66086;DHT22;52868;49.758;9.586;2023-03-01T08:10:05;2.70;62.80
66086;DHT22;52868;49.758;9.586;2023-03-01T08:12:30;2.80;62.70
66086;DHT22;52868;49.758;9.586;2023-03-01T08:14:56;2.90;62.70
66086;DHT22;52868;49.758;9.586;2023-03-01T08:17:22;2.90;62.50
66086;DHT22;52868;49.758;9.586;2023-03-01T08:19:48;3.00;62.40
66086;DHT22;52868;49.758;9.586;2023-03-01T08:22:14;3.10;62.40
66086;DHT22;52868;49.758;9.586;2023-03-01T08:24:39;3.20;62.30
66086;DHT22;52868;49.758;9.586;2023-03-01T08:27:05;3.20;62.30
66086;DHT22;52868;49.758;9.586;2023-03-01T08:29:32;3.20;62.30
66086;DHT22;52868;49.758;9.586;2023-03-01T08:31:58;3.20;62.30
66086;DHT22;52868;49.758;9.586;2023-03-01T08:34:23;3.20;62.00
66086;DHT22;52868;49.758;9.586;2023-03-01T08:36:49;3.30;61.70
66086;DHT22;52868;49.758;9.586;2023-03-01T08:39:18;3.30;61.10
66086;DHT22;52868;49.758;9.586;2023-03-01T08:41:45;3.40;61.50
66086;DHT22;52868;49.758;9.586;2023-03-01T08:44:13;3.40;61.50
66086;DHT22;52868;49.758;9.586;2023-03-01T08:46:41;3.50;61.50
66086;DHT22;52868;49.758;9.586;2023-03-01T08:49:08;3.60;61.60
66086;DHT22;52868;49.758;9.586;2023-03-01T08:51:35;3.70;61.10
66086;DHT22;52868;49.758;9.586;2023-03-01T08:54:21;3.70;60.80
66086;DHT22;52868;49.758;9.586;2023-03-01T08:56:47;3.70;61.20
66086;DHT22;52868;49.758;9.586;2023-03-01T08:59:14;3.70;60.30
66086;DHT22;52868;49.758;9.586;2023-03-01T09:01:41;3.80;60.80
66086;DHT22;52868;49.758;9.586;2023-03-01T09:04:14;3.80;60.50
66086;DHT22;52868;49.758;9.586;2023-03-01T09:06:39;3.80;59.30
66086;DHT22;52868;49.758;9.586;2023-03-01T09:09:06;3.80;59.60
66086;DHT22;52868;49.758;9.586;2023-03-01T09:11:36;3.90;59.80
66086;DHT22;52868;49.758;9.586;2023-03-01T09:14:05;4.00;60.20
66086;DHT22;52868;49.758;9.586;2023-03-01T09:16:31;4.00;59.90
66086;DHT22;52868;49.758;9.586;2023-03-01T09:19:01;4.10;60.30
66086;DHT22;52868;49.758;9.586;2023-03-01T09:21:26;4.20;59.50
66086;DHT22;52868;49.758;9.586;2023-03-01T09:23:52;4.20;60.10
66086;DHT22;52868;49.758;9.586;2023-03-01T09:26:19;4.20;59.90
66086;DHT22;52868;49.758;9.586;2023-03-01T09:28:48;4.20;59.20
66086;DHT22;52868;49.758;9.586;2023-03-01T09:31:14;4.30;59.20
66086;DHT22;52868;49.758;9.586;2023-03-01T09:33:41;4.30;59.70
66086;DHT22;52868;49.758;9.586;2023-03-01T09:36:13;4.30;59.30
66086;DHT22;52868;49.758;9.586;2023-03-01T09:38:39;4.40;59.50
66086;DHT22;52868;49.758;9.586;2023-03-01T09:41:44;4.40;59.00
66086;DHT22;52868;49.758;9.586;2023-03-01T09:46:57;4.50;58.80
66086;DHT22;52868;49.758;9.586;2023-03-01T09:49:25;4.60;58.50
66086;DHT22;52868;49.758;9.586;2023-03-01T09:52:04;4.60;59.00
66086;DHT22;52868;49.758;9.586;2023-03-01T09:54:33;4.70;58.70
66086;DHT22;52868;49.758;9.586;2023-03-01T09:57:18;4.70;58.80
66086;DHT22;52868;49.758;9.586;2023-03-01T09:59:50;4.70;59.10
66086;DHT22;52868;49.758;9.586;2023-03-01T10:02:24;4.70;59.50
66086;DHT22;52868;49.758;9.586;2023-03-01T10:04:55;4.70;58.50
66086;DHT22;52868;49.758;9.586;2023-03-01T10:10:22;4.70;59.40
66086;DHT22;52868;49.758;9.586;2023-03-01T10:12:49;4.70;58.60
66086;DHT22;52868;49.758;9.586;2023-03-01T10:15:44;4.70;59.10
66086;DHT22;52868;49.758;9.586;2023-03-01T10:18:28;4.80;58.60
66086;DHT22;52868;49.758;9.586;2023-03-01T10:21:00;4.80;59.00
66086;DHT22;52868;49.758;9.586;2023-03-01T10:23:29;4.80;59.10
66086;DHT22;52868;49.758;9.586;2023-03-01T10:29:05;4.90;59.90
66086;DHT22;52868;49.758;9.586;2023-03-01T10:31:48;4.90;59.30
66086;DHT22;52868;49.758;9.586;2023-03-01T10:34:35;4.90;58.70
66086;DHT22;52868;49.758;9.586;2023-03-01T10:37:12;4.90;58.70
66086;DHT22;52868;49.758;9.586;2023-03-01T10:39:55;4.90;58.40
66086;DHT22;52868;49.758;9.586;2023-03-01T10:42:31;5.00;58.50
66086;DHT22;52868;49.758;9.586;2023-03-01T10:44:58;5.00;58.50
66086;DHT22;52868;49.758;9.586;2023-03-01T10:47:26;5.00;59.00
66086;DHT22;52868;49.758;9.586;2023-03-01T10:49:56;5.10;59.30
66086;DHT22;52868;49.758;9.586;2023-03-01T10:52:29;5.10;59.80
66086;DHT22;52868;49.758;9.586;2023-03-01T10:55:00;5.10;58.20
66086;DHT22;52868;49.758;9.586;2023-03-01T10:57:37;5.10;58.60
66086;DHT22;52868;49.758;9.586;2023-03-01T11:00:24;5.10;58.00
66086;DHT22;52868;49.758;9.586;2023-03-01T11:05:25;5.20;59.00
66086;DHT22;52868;49.758;9.586;2023-03-01T11:07:52;5.20;58.70
66086;DHT22;52868;49.758;9.586;2023-03-01T11:10:20;5.20;58.40
66086;DHT22;52868;49.758;9.586;2023-03-01T11:12:46;5.20;57.50
66086;DHT22;52868;49.758;9.586;2023-03-01T11:15:26;5.20;58.20
66086;DHT22;52868;49.758;9.586;2023-03-01T11:17:54;5.20;58.40
66086;DHT22;52868;49.758;9.586;2023-03-01T11:20:36;5.30;58.90
66086;DHT22;52868;49.758;9.586;2023-03-01T11:23:05;5.20;58.40
66086;DHT22;52868;49.758;9.586;2023-03-01T11:25:47;5.30;58.00
66086;DHT22;52868;49.758;9.586;2023-03-01T11:28:17;5.20;57.20
66086;DHT22;52868;49.758;9.586;2023-03-01T11:36:30;5.40;58.70
66086;DHT22;52868;49.758;9.586;2023-03-01T11:38:57;5.40;58.30
66086;DHT22;52868;49.758;9.586;2023-03-01T11:41:31;5.40;59.00
66086;DHT22;52868;49.758;9.586;2023-03-01T11:44:03;5.40;58.80
66086;DHT22;52868;49.758;9.586;2023-03-01T11:46:42;5.40;58.00
66086;DHT22;52868;49.758;9.586;2023-03-01T12:00:23;5.60;57.80
66086;DHT22;52868;49.758;9.586;2023-03-01T12:08:41;5.70;57.30
66086;DHT22;52868;49.758;9.586;2023-03-01T12:19:35;5.70;56.60
66086;DHT22;52868;49.758;9.586;2023-03-01T12:25:25;5.80;56.70
66086;DHT22;52868;49.758;9.586;2023-03-01T12:28:21;5.70;56.90
66086;DHT22;52868;49.758;9.586;2023-03-01T12:31:33;5.80;57.40
66086;DHT22;52868;49.758;9.586;2023-03-01T12:42:27;5.90;55.90
66086;DHT22;52868;49.758;9.586;2023-03-01T12:48:02;6.00;56.30
66086;DHT22;52868;49.758;9.586;2023-03-01T12:51:01;6.00;56.40
66086;DHT22;52868;49.758;9.586;2023-03-01T12:53:41;6.00;57.00
66086;DHT22;52868;49.758;9.586;2023-03-01T12:56:08;6.10;57.10
66086;DHT22;52868;49.758;9.586;2023-03-01T12:58:57;6.10;56.40
66086;DHT22;52868;49.758;9.586;2023-03-01T13:17:53;6.20;55.60
66086;DHT22;52868;49.758;9.586;2023-03-01T13:20:26;6.20;56.40
66086;DHT22;52868;49.758;9.586;2023-03-01T13:33:57;6.20;56.20
66086;DHT22;52868;49.758;9.586;2023-03-01T13:39:48;6.30;56.30
66086;DHT22;52868;49.758;9.586;2023-03-01T13:41:51;6.30;56.20
66086;DHT22;52868;49.758;9.586;2023-03-01T13:46:51;6.30;56.40
66086;DHT22;52868;49.758;9.586;2023-03-01T13:49:25;6.30;56.30
66086;DHT22;52868;49.758;9.586;2023-03-01T13:51:52;6.30;57.20
66086;DHT22;52868;49.758;9.586;2023-03-01T13:54:26;6.40;56.20
66086;DHT22;52868;49.758;9.586;2023-03-01T13:57:37;6.40;55.80
66086;DHT22;52868;49.758;9.586;2023-03-01T14:03:03;6.50;56.00
66086;DHT22;52868;49.758;9.586;2023-03-01T14:05:30;6.50;55.90
66086;DHT22;52868;49.758;9.586;2023-03-01T14:07:56;6.50;55.40
66086;DHT22;52868;49.758;9.586;2023-03-01T14:10:22;6.50;55.40
66086;DHT22;52868;49.758;9.586;2023-03-01T14:15:42;6.50;55.20
66086;DHT22;52868;49.758;9.586;2023-03-01T14:18:18;6.60;55.40
66086;DHT22;52868;49.758;9.586;2023-03-01T14:20:46;6.60;55.70
66086;DHT22;52868;49.758;9.586;2023-03-01T14:23:22;6.60;55.50
66086;DHT22;52868;49.758;9.586;2023-03-01T14:25:54;6.70;55.50
66086;DHT22;52868;49.758;9.586;2023-03-01T14:28:31;6.70;55.90
66086;DHT22;52868;49.758;9.586;2023-03-01T14:31:00;6.70;55.90
66086;DHT22;52868;49.758;9.586;2023-03-01T14:33:27;6.70;55.60
66086;DHT22;52868;49.758;9.586;2023-03-01T14:38:30;6.70;55.80
66086;DHT22;52868;49.758;9.586;2023-03-01T14:40:59;6.70;55.50
66086;DHT22;52868;49.758;9.586;2023-03-01T14:43:27;6.70;55.80
66086;DHT22;52868;49.758;9.586;2023-03-01T14:45:54;6.70;55.60
66086;DHT22;52868;49.758;9.586;2023-03-01T14:48:20;6.70;55.80
66086;DHT22;52868;49.758;9.586;2023-03-01T14:50:50;6.70;55.00
66086;DHT22;52868;49.758;9.586;2023-03-01T14:53:17;6.80;55.00
66086;DHT22;52868;49.758;9.586;2023-03-01T14:55:53;6.80;55.50
66086;DHT22;52868;49.758;9.586;2023-03-01T14:58:24;6.70;55.20
66086;DHT22;52868;49.758;9.586;2023-03-01T15:01:23;6.80;56.00
66086;DHT22;52868;49.758;9.586;2023-03-01T15:03:49;6.70;55.70
66086;DHT22;52868;49.758;9.586;2023-03-01T15:06:19;6.70;56.00
66086;DHT22;52868;49.758;9.586;2023-03-01T15:08:47;6.70;56.20
66086;DHT22;52868;49.758;9.586;2023-03-01T15:13:43;6.80;55.70
66086;DHT22;52868;49.758;9.586;2023-03-01T15:16:17;6.70;55.70
66086;DHT22;52868;49.758;9.586;2023-03-01T15:18:49;6.70;55.60
66086;DHT22;52868;49.758;9.586;2023-03-01T15:21:18;6.80;55.70
66086;DHT22;52868;49.758;9.586;2023-03-01T15:23:49;6.80;55.50
66086;DHT22;52868;49.758;9.586;2023-03-01T15:26:29;6.90;55.60
66086;DHT22;52868;49.758;9.586;2023-03-01T15:28:55;6.80;55.60
66086;DHT22;52868;49.758;9.586;2023-03-01T15:31:36;6.80;56.10
66086;DHT22;52868;49.758;9.586;2023-03-01T15:36:51;6.90;55.40
66086;DHT22;52868;49.758;9.586;2023-03-01T15:39:37;6.90;55.70
66086;DHT22;52868;49.758;9.586;2023-03-01T15:47:40;6.80;55.70
66086;DHT22;52868;49.758;9.586;2023-03-01T15:50:18;6.80;55.60
66086;DHT22;52868;49.758;9.586;2023-03-01T15:52:44;6.80;55.50
66086;DHT22;52868;49.758;9.586;2023-03-01T15:55:17;6.90;54.90
66086;DHT22;52868;49.758;9.586;2023-03-01T15:57:43;7.00;55.30
66086;DHT22;52868;49.758;9.586;2023-03-01T16:00:11;6.90;55.30
66086;DHT22;52868;49.758;9.586;2023-03-01T16:02:41;6.90;55.00
66086;DHT22;52868;49.758;9.586;2023-03-01T16:05:21;6.90;55.40
66086;DHT22;52868;49.758;9.586;2023-03-01T16:07:48;6.90;55.30
66086;DHT22;52868;49.758;9.586;2023-03-01T16:10:14;6.80;55.70
66086;DHT22;52868;49.758;9.586;2023-03-01T16:12:40;6.80;55.80
66086;DHT22;52868;49.758;9.586;2023-03-01T16:15:15;6.80;55.80
66086;DHT22;52868;49.758;9.586;2023-03-01T16:17:42;6.80;55.90
66086;DHT22;52868;49.758;9.586;2023-03-01T16:20:08;6.80;55.30
66086;DHT22;52868;49.758;9.586;2023-03-01T16:22:34;6.80;55.80
66086;DHT22;52868;49.758;9.586;2023-03-01T16:24:59;6.80;55.70
66086;DHT22;52868;49.758;9.586;2023-03-01T16:27:25;6.80;55.70
66086;DHT22;52868;49.758;9.586;2023-03-01T16:29:51;6.80;55.90
66086;DHT22;52868;49.758;9.586;2023-03-01T16:32:16;6.80;55.60
66086;DHT22;52868;49.758;9.586;2023-03-01T16:34:42;6.80;55.60
66086;DHT22;52868;49.758;9.586;2023-03-01T16:37:07;6.80;55.60
66086;DHT22;52868;49.758;9.586;2023-03-01T16:39:33;6.70;56.20
66086;DHT22;52868;49.758;9.586;2023-03-01T16:42:00;6.70;56.30
66086;DHT22;52868;49.758;9.586;2023-03-01T16:44:26;6.70;56.10
66086;DHT22;52868;49.758;9.586;2023-03-01T16:46:52;6.70;56.10
66086;DHT22;52868;49.758;9.586;2023-03-01T16:49:17;6.70;56.20
66086;DHT22;52868;49.758;9.586;2023-03-01T16:51:43;6.70;56.10
66086;DHT22;52868;49.758;9.586;2023-03-01T16:54:10;6.70;56.40
66086;DHT22;52868;49.758;9.586;2023-03-01T16:56:36;6.70;56.30
66086;DHT22;52868;49.758;9.586;2023-03-01T16:59:03;6.60;56.50
66086;DHT22;52868;49.758;9.586;2023-03-01T17:01:30;6.60;56.50
66086;DHT22;52868;49.758;9.586;2023-03-01T17:04:03;6.60;56.50
66086;DHT22;52868;49.758;9.586;2023-03-01T17:06:29;6.50;56.70
66086;DHT22;52868;49.758;9.586;2023-03-01T17:08:56;6.50;56.80
66086;DHT22;52868;49.758;9.586;2023-03-01T17:11:21;6.50;56.90
66086;DHT22;52868;49.758;9.586;2023-03-01T17:13:47;6.50;56.90
66086;DHT22;52868;49.758;9.586;2023-03-01T17:16:15;6.50;56.90
66086;DHT22;52868;49.758;9.586;2023-03-01T17:18:42;6.40;57.00
66086;DHT22;52868;49.758;9.586;2023-03-01T17:21:08;6.40;57.00
66086;DHT22;52868;49.758;9.586;2023-03-01T17:23:36;6.40;57.10
66086;DHT22;52868;49.758;9.586;2023-03-01T17:26:03;6.40;57.10
66086;DHT22;52868;49.758;9.586;2023-03-01T17:28:30;6.40;57.40
66086;DHT22;52868;49.758;9.586;2023-03-01T17:30:59;6.40;57.40
66086;DHT22;52868;49.758;9.586;2023-03-01T17:33:33;6.30;57.30
66086;DHT22;52868;49.758;9.586;2023-03-01T17:35:58;6.30;57.40
66086;DHT22;52868;49.758;9.586;2023-03-01T17:38:24;6.30;57.50
66086;DHT22;52868;49.758;9.586;2023-03-01T17:40:50;6.30;57.60
66086;DHT22;52868;49.758;9.586;2023-03-01T17:43:16;6.30;57.60
66086;DHT22;52868;49.758;9.586;2023-03-01T17:45:43;6.30;57.60
66086;DHT22;52868;49.758;9.586;2023-03-01T17:48:13;6.30;57.90
66086;DHT22;52868;49.758;9.586;2023-03-01T17:50:39;6.30;57.70
66086;DHT22;52868;49.758;9.586;2023-03-01T17:53:06;6.20;57.70